createdAt,value
2023-01-11T00:00:49.602Z,100.00
2023-01-11T00:05:47.382Z,100.00
2023-01-11T00:13:11.555Z,100.00
2023-01-11T00:15:40.400Z,100.00
2023-01-11T00:18:08.088Z,100.00
2023-01-11T00:23:05.368Z,100.00
2023-01-11T00:28:16.203Z,100.00
2023-01-11T00:30:46.629Z,100.00
2023-01-11T00:38:38.365Z,100.00
2023-01-11T00:41:21.315Z,100.00
2023-01-11T00:44:06.415Z,100.00
2023-01-11T00:46:51.824Z,100.00
2023-01-11T00:49:19.585Z,100.00
2023-01-11T00:51:47.224Z,100.00
2023-01-11T00:54:14.384Z,100.00
2023-01-11T00:56:43.398Z,100.00
2023-01-11T00:59:12.933Z,100.00
2023-01-11T01:01:40.681Z,100.00
2023-01-11T01:04:08.369Z,100.00
2023-01-11T01:06:36.005Z,100.00
2023-01-11T01:09:04.695Z,100.00
2023-01-11T01:25:00.446Z,100.00
2023-01-11T01:29:57.540Z,100.00
2023-01-11T01:37:27.731Z,100.00
2023-01-11T01:39:57.371Z,100.00
2023-01-11T01:45:06.177Z,100.00
2023-01-11T01:47:42.043Z,100.00
2023-01-11T01:50:14.741Z,100.00
2023-01-11T01:52:45.990Z,100.00
2023-01-11T01:55:15.852Z,100.00
2023-01-11T01:57:45.213Z,100.00
2023-01-11T02:00:13.856Z,100.00
2023-01-11T02:02:42.270Z,100.00
2023-01-11T02:05:10.878Z,100.00
2023-01-11T02:07:40.231Z,100.00
2023-01-11T02:10:11.604Z,100.00
2023-01-11T02:12:41.810Z,100.00
2023-01-11T02:15:11.135Z,100.00
2023-01-11T02:17:38.734Z,100.00
2023-01-11T02:20:32.904Z,100.00
2023-01-11T02:23:21.567Z,100.00
2023-01-11T02:26:31.430Z,100.00
2023-01-11T02:29:05.953Z,100.00
2023-01-11T02:31:36.433Z,100.00
2023-01-11T02:34:11.882Z,100.00
2023-01-11T02:36:48.372Z,100.00
2023-01-11T02:39:19.836Z,100.00
2023-01-11T02:42:12.163Z,100.00
2023-01-11T02:45:01.461Z,100.00
2023-01-11T02:47:35.533Z,100.00
2023-01-11T02:50:10.673Z,100.00
2023-01-11T02:52:42.448Z,100.00
2023-01-11T02:55:11.580Z,100.00
2023-01-11T02:57:40.232Z,100.00
2023-01-11T03:00:11.226Z,100.00
2023-01-11T03:02:39.477Z,100.00
2023-01-11T03:05:12.968Z,100.00
2023-01-11T03:07:51.967Z,100.00
2023-01-11T03:10:26.886Z,100.00
2023-01-11T03:13:00.239Z,100.00
2023-01-11T03:15:55.592Z,100.00
2023-01-11T03:18:34.276Z,100.00
2023-01-11T03:21:12.766Z,100.00
2023-01-11T03:23:43.883Z,100.00
2023-01-11T03:26:17.291Z,100.00
2023-01-11T03:28:52.361Z,100.00
2023-01-11T03:31:24.422Z,100.00
2023-01-11T03:34:00.142Z,100.00
2023-01-11T03:36:30.119Z,100.00
2023-01-11T03:39:01.679Z,100.00
2023-01-11T03:41:32.351Z,100.00
2023-01-11T03:44:01.224Z,100.00
2023-01-11T03:46:32.282Z,100.00
2023-01-11T03:49:02.938Z,100.00
2023-01-11T03:51:32.796Z,100.00
2023-01-11T03:54:05.002Z,100.00
2023-01-11T03:56:37.541Z,100.00
2023-01-11T03:59:05.310Z,100.00
2023-01-11T04:01:34.345Z,100.00
2023-01-11T04:04:01.969Z,100.00
2023-01-11T04:06:30.282Z,100.00
2023-01-11T04:08:57.893Z,100.00
2023-01-11T04:11:25.647Z,100.00
2023-01-11T04:13:53.347Z,100.00
2023-01-11T04:16:21.131Z,100.00
2023-01-11T04:18:50.128Z,100.00
2023-01-11T04:21:17.868Z,100.00
2023-01-11T04:23:45.512Z,100.00
2023-01-11T04:26:13.167Z,100.00
2023-01-11T04:28:40.895Z,100.00
2023-01-11T04:31:08.636Z,100.00
2023-01-11T04:33:36.360Z,100.00
2023-01-11T04:36:07.237Z,100.00
2023-01-11T04:38:35.132Z,100.00
2023-01-11T04:41:17.503Z,100.00
2023-01-11T04:43:45.212Z,100.00
2023-01-11T04:46:12.943Z,100.00
2023-01-11T04:48:42.028Z,100.00
2023-01-11T04:51:11.157Z,100.00
2023-01-11T04:53:38.887Z,100.00
2023-01-11T04:56:07.769Z,100.00
2023-01-11T04:58:38.215Z,100.00
2023-01-11T05:01:09.959Z,100.00
2023-01-11T05:03:37.715Z,100.00
2023-01-11T05:06:06.514Z,100.00
2023-01-11T05:08:35.658Z,100.00
2023-01-11T05:11:05.249Z,100.00
2023-01-11T05:13:45.275Z,100.00
2023-01-11T05:16:14.480Z,100.00
2023-01-11T05:18:42.790Z,100.00
2023-01-11T05:21:12.105Z,100.00
2023-01-11T05:23:42.132Z,100.00
2023-01-11T05:26:11.768Z,100.00
2023-01-11T05:28:39.472Z,100.00
2023-01-11T05:31:07.165Z,100.00
2023-01-11T05:33:34.832Z,100.00
2023-01-11T05:36:04.408Z,100.00
2023-01-11T05:38:32.129Z,100.00
2023-01-11T05:41:03.053Z,100.00
2023-01-11T05:43:31.889Z,100.00
2023-01-11T05:45:59.348Z,100.00
2023-01-11T05:48:27.116Z,100.00
2023-01-11T05:50:56.763Z,100.00
2023-01-11T05:55:55.763Z,100.00
2023-01-11T05:58:26.579Z,100.00
2023-01-11T06:00:55.877Z,100.00
2023-01-11T06:03:25.215Z,100.00
2023-01-11T06:05:53.989Z,100.00
2023-01-11T06:08:21.880Z,100.00
2023-01-11T06:10:52.484Z,100.00
2023-01-11T06:13:29.372Z,100.00
2023-01-11T06:16:01.813Z,100.00
2023-01-11T06:18:30.670Z,100.00
2023-01-11T06:20:58.830Z,100.00
2023-01-11T06:23:26.993Z,100.00
2023-01-11T06:25:55.075Z,100.00
2023-01-11T06:28:23.333Z,100.00
2023-01-11T06:30:54.820Z,100.00
2023-01-11T06:33:32.820Z,100.00
2023-01-11T06:36:02.802Z,100.00
2023-01-11T06:38:34.675Z,100.00
2023-01-11T06:41:07.205Z,100.00
2023-01-11T06:43:35.052Z,100.00
2023-01-11T06:46:02.733Z,100.00
2023-01-11T06:48:32.037Z,100.00
2023-01-11T06:51:00.378Z,100.00
2023-01-11T06:53:29.538Z,100.00
2023-01-11T06:55:58.562Z,100.00
2023-01-11T06:58:27.471Z,100.00
2023-01-11T07:00:57.161Z,100.00
2023-01-11T07:03:25.792Z,100.00
2023-01-11T07:05:56.747Z,100.00
2023-01-11T07:08:25.069Z,100.00
2023-01-11T07:10:53.099Z,100.00
2023-01-11T07:13:21.080Z,100.00
2023-01-11T07:15:50.675Z,100.00
2023-01-11T07:18:19.153Z,100.00
2023-01-11T07:20:47.002Z,100.00
2023-01-11T07:23:16.008Z,100.00
2023-01-11T07:25:43.784Z,100.00
2023-01-11T07:28:11.543Z,100.00
2023-01-11T07:30:56.690Z,100.00
2023-01-11T07:33:25.953Z,100.00
2023-01-11T07:35:53.735Z,100.00
2023-01-11T07:38:23.004Z,100.00
2023-01-11T07:40:50.819Z,100.00
2023-01-11T07:43:19.681Z,100.00
2023-01-11T07:45:49.438Z,100.00
2023-01-11T07:48:20.877Z,100.00
2023-01-11T07:50:49.377Z,100.00
2023-01-11T07:53:18.840Z,100.00
2023-01-11T07:55:47.931Z,100.00
2023-01-11T07:58:16.257Z,100.00
2023-01-11T08:00:45.913Z,100.00
2023-01-11T08:03:13.698Z,100.00
2023-01-11T08:05:41.619Z,100.00
2023-01-11T08:08:09.473Z,100.00
2023-01-11T08:10:37.096Z,100.00
2023-01-11T08:13:23.799Z,100.00
2023-01-11T08:15:51.441Z,100.00
2023-01-11T08:18:19.977Z,100.00
2023-01-11T08:20:48.639Z,100.00
2023-01-11T08:23:16.263Z,100.00
2023-01-11T08:25:43.985Z,100.00
2023-01-11T08:28:13.179Z,100.00
2023-01-11T08:30:41.711Z,100.00
2023-01-11T08:33:12.695Z,100.00
2023-01-11T08:35:43.037Z,100.00
2023-01-11T08:38:12.127Z,100.00
2023-01-11T08:40:41.015Z,100.00
2023-01-11T08:43:08.966Z,100.00
2023-01-11T08:45:37.954Z,100.00
2023-01-11T08:48:05.823Z,100.00
2023-01-11T08:50:33.805Z,100.00
2023-01-11T08:53:01.477Z,100.00
2023-01-11T08:55:30.710Z,100.00
2023-01-11T08:57:58.457Z,100.00
2023-01-11T09:00:27.225Z,100.00
2023-01-11T09:02:57.422Z,100.00
2023-01-11T09:05:25.575Z,100.00
2023-01-11T09:07:55.615Z,100.00
2023-01-11T09:10:27.293Z,100.00
2023-01-11T09:12:55.513Z,100.00
2023-01-11T09:15:23.441Z,100.00
2023-01-11T09:17:53.588Z,100.00
2023-01-11T09:20:23.427Z,100.00
2023-01-11T09:22:53.288Z,100.00
2023-01-11T09:25:21.524Z,100.00
2023-01-11T09:27:50.441Z,100.00
2023-01-11T09:30:19.812Z,100.00
2023-01-11T09:32:47.885Z,100.00
2023-01-11T09:35:16.867Z,100.00
2023-01-11T09:37:50.240Z,100.00
2023-01-11T09:40:21.091Z,100.00
2023-01-11T09:42:52.527Z,100.00
2023-01-11T09:45:23.046Z,100.00
2023-01-11T09:47:52.721Z,100.00
2023-01-11T09:50:23.443Z,100.00
2023-01-11T09:52:54.863Z,100.00
2023-01-11T09:55:33.958Z,100.00
2023-01-11T09:58:28.369Z,100.00
2023-01-11T10:01:02.649Z,100.00
2023-01-11T10:03:58.373Z,100.00
2023-01-11T10:06:28.945Z,100.00
2023-01-11T10:18:22.728Z,100.00
2023-01-11T10:18:31.572Z,100.00
2023-01-11T10:21:06.827Z,100.00
2023-01-11T10:23:42.176Z,100.00
2023-01-11T10:26:24.146Z,100.00
2023-01-11T10:29:07.348Z,100.00
2023-01-11T10:31:49.371Z,100.00
2023-01-11T10:34:40.062Z,100.00
2023-01-11T10:37:30.498Z,100.00
2023-01-11T10:40:22.767Z,100.00
2023-01-11T10:42:56.208Z,100.00
2023-01-11T10:45:38.435Z,100.00
2023-01-11T10:48:09.024Z,100.00
2023-01-11T10:50:41.483Z,100.00
2023-01-11T10:53:17.058Z,100.00
2023-01-11T10:55:49.530Z,100.00
2023-01-11T10:58:30.251Z,100.00
2023-01-11T11:01:08.570Z,100.00
2023-01-11T11:03:53.068Z,100.00
2023-01-11T11:06:27.390Z,100.00
2023-01-11T11:09:00.364Z,100.00
2023-01-11T11:11:33.415Z,100.00
2023-01-11T11:14:04.887Z,100.00
2023-01-11T11:16:42.498Z,100.00
2023-01-11T11:19:13.789Z,100.00
2023-01-11T11:21:43.460Z,100.00
2023-01-11T11:24:19.002Z,100.00
2023-01-11T11:26:50.296Z,100.00
2023-01-11T11:29:23.361Z,100.00
2023-01-11T11:31:52.064Z,100.00
2023-01-11T11:34:22.493Z,100.00
2023-01-11T11:36:51.753Z,100.00
2023-01-11T11:39:20.936Z,100.00
2023-01-11T11:41:50.490Z,100.00
2023-01-11T11:44:20.868Z,100.00
2023-01-11T11:47:01.183Z,100.00
2023-01-11T11:49:29.808Z,100.00
2023-01-11T11:51:58.367Z,100.00
2023-01-11T11:54:29.443Z,100.00
2023-01-11T11:56:59.281Z,100.00
2023-01-11T11:59:29.714Z,100.00
2023-01-11T12:02:01.856Z,100.00
2023-01-11T12:04:39.734Z,100.00
2023-01-11T12:07:09.965Z,100.00
2023-01-11T12:09:37.858Z,100.00
2023-01-11T12:12:06.729Z,100.00
2023-01-11T12:14:35.531Z,100.00
2023-01-11T12:17:23.419Z,100.00
2023-01-11T12:19:51.157Z,100.00
2023-01-11T12:22:20.582Z,100.00
2023-01-11T12:24:49.802Z,100.00
2023-01-11T12:27:28.726Z,100.00
2023-01-11T12:30:07.759Z,100.00
2023-01-11T12:32:55.469Z,100.00
2023-01-11T12:35:37.363Z,100.00
2023-01-11T12:38:17.686Z,100.00
2023-01-11T12:40:52.990Z,100.00
2023-01-11T12:43:34.864Z,100.00
2023-01-11T12:46:12.952Z,100.00
2023-01-11T12:48:53.210Z,100.00
2023-01-11T12:51:38.109Z,100.00
2023-01-11T12:54:25.927Z,100.00
2023-01-11T12:57:08.087Z,100.00
2023-01-11T12:59:51.274Z,100.00
2023-01-11T13:02:32.500Z,100.00
2023-01-11T13:05:09.386Z,100.00
2023-01-11T13:07:47.117Z,100.00
2023-01-11T13:10:22.857Z,100.00
2023-01-11T13:12:53.805Z,99.23
2023-01-11T13:15:34.501Z,97.82
2023-01-11T13:18:08.842Z,99.33
2023-01-11T13:21:00.074Z,98.00
2023-01-11T13:23:34.855Z,98.45
2023-01-11T13:26:14.732Z,98.44
2023-01-11T13:28:45.738Z,98.63
2023-01-11T13:31:15.163Z,99.13
2023-01-11T13:33:47.394Z,99.27
2023-01-11T13:36:23.764Z,98.42
2023-01-11T13:38:56.383Z,98.78
2023-01-11T13:41:28.927Z,99.43
2023-01-11T13:43:57.622Z,100.00
2023-01-11T13:46:38.141Z,100.00
2023-01-11T13:49:13.737Z,100.00
2023-01-11T13:51:48.452Z,100.00
2023-01-11T13:54:19.903Z,100.00
2023-01-11T13:56:51.004Z,100.00
2023-01-11T13:59:24.308Z,100.00
2023-01-11T14:01:55.886Z,100.00
2023-01-11T14:04:27.601Z,100.00
2023-01-11T14:07:06.115Z,100.00
2023-01-11T14:09:53.438Z,100.00
2023-01-11T14:12:29.357Z,100.00
2023-01-11T14:15:07.262Z,100.00
2023-01-11T14:17:55.506Z,100.00
2023-01-11T14:20:30.015Z,100.00
2023-01-11T14:23:07.432Z,100.00
2023-01-11T14:25:38.520Z,100.00
2023-01-11T14:28:25.360Z,100.00
2023-01-11T14:31:05.749Z,100.00
2023-01-11T14:33:59.220Z,100.00
2023-01-11T14:37:17.671Z,100.00
2023-01-11T14:40:08.264Z,100.00
2023-01-11T14:43:09.817Z,100.00
2023-01-11T14:45:47.799Z,98.31
2023-01-11T14:48:27.681Z,99.37
2023-01-11T14:51:06.889Z,97.30
2023-01-11T14:53:38.179Z,97.01
2023-01-11T14:56:35.404Z,94.60
2023-01-11T14:59:04.421Z,93.93
2023-01-11T15:02:11.299Z,94.23
2023-01-11T15:04:40.231Z,95.28
2023-01-11T15:07:23.611Z,94.73
2023-01-11T15:09:53.508Z,94.55
2023-01-11T15:12:23.408Z,90.59
2023-01-11T15:14:54.915Z,91.10
2023-01-11T15:17:43.504Z,91.55
2023-01-11T15:20:13.465Z,91.52
2023-01-11T15:22:41.669Z,92.50
2023-01-11T15:25:21.793Z,92.47
2023-01-11T15:27:51.158Z,92.38
2023-01-11T15:30:39.242Z,92.85
2023-01-11T15:33:29.163Z,93.66
2023-01-11T15:36:06.671Z,94.83
2023-01-11T15:38:36.791Z,95.45
2023-01-11T15:41:19.372Z,96.27
2023-01-11T15:43:56.705Z,97.06
2023-01-11T15:46:54.221Z,97.40
2023-01-11T15:49:47.730Z,97.00
2023-01-11T15:53:06.582Z,97.71
2023-01-11T15:56:03.117Z,98.20
2023-01-11T15:58:56.870Z,97.95
2023-01-11T16:01:26.145Z,96.47
2023-01-11T16:04:00.355Z,96.99
2023-01-11T16:06:34.691Z,97.11
2023-01-11T16:09:11.802Z,96.96
2023-01-11T16:11:43.475Z,96.75
2023-01-11T16:14:30.202Z,96.48
2023-01-11T16:16:58.116Z,96.32
2023-01-11T16:19:28.148Z,97.27
2023-01-11T16:21:59.203Z,97.00
2023-01-11T16:24:29.470Z,96.68
2023-01-11T16:26:59.158Z,97.77
2023-01-11T16:29:31.139Z,97.76
2023-01-11T16:32:00.718Z,97.87
2023-01-11T16:34:29.842Z,97.92
2023-01-11T16:36:58.100Z,97.37
2023-01-11T16:39:28.393Z,97.66
2023-01-11T16:41:58.708Z,97.21
2023-01-11T16:44:36.050Z,98.16
2023-01-11T16:47:15.697Z,98.43
2023-01-11T16:49:48.788Z,99.13
2023-01-11T16:52:39.234Z,99.65
2023-01-11T16:55:22.349Z,99.63
2023-01-11T16:57:54.447Z,99.54
2023-01-11T17:00:28.837Z,99.38
2023-01-11T17:03:06.744Z,99.24
2023-01-11T17:05:34.549Z,99.79
2023-01-11T17:08:09.603Z,100.00
2023-01-11T17:10:37.449Z,100.00
2023-01-11T17:13:33.281Z,99.46
2023-01-11T17:16:05.069Z,99.34
2023-01-11T17:18:33.014Z,99.71
2023-01-11T17:21:00.781Z,100.00
2023-01-11T17:23:28.848Z,100.00
2023-01-11T17:25:57.586Z,100.00
2023-01-11T17:28:26.167Z,100.00
2023-01-11T17:30:54.232Z,100.00
2023-01-11T17:33:29.177Z,100.00
2023-01-11T17:35:57.052Z,100.00
2023-01-11T17:38:26.041Z,100.00
2023-01-11T17:40:57.239Z,100.00
2023-01-11T17:43:43.491Z,100.00
2023-01-11T17:46:15.682Z,100.00
2023-01-11T17:48:52.900Z,100.00
2023-01-11T17:51:25.927Z,100.00
2023-01-11T17:53:53.600Z,100.00
2023-01-11T17:56:37.648Z,100.00
2023-01-11T17:59:17.472Z,100.00
2023-01-11T18:01:47.087Z,100.00
2023-01-11T18:04:19.859Z,100.00
2023-01-11T18:06:48.443Z,100.00
2023-01-11T18:09:23.302Z,100.00
2023-01-11T18:11:52.264Z,100.00
2023-01-11T18:14:22.449Z,100.00
2023-01-11T18:16:58.042Z,100.00
2023-01-11T18:19:32.840Z,100.00
2023-01-11T18:22:00.833Z,100.00
2023-01-11T18:24:31.874Z,100.00
2023-01-11T18:27:16.974Z,100.00
2023-01-11T18:29:51.793Z,100.00
2023-01-11T18:32:20.379Z,100.00
2023-01-11T18:34:51.790Z,100.00
2023-01-11T18:37:20.153Z,100.00
2023-01-11T18:39:47.868Z,100.00
2023-01-11T18:42:18.273Z,100.00
2023-01-11T18:44:49.396Z,100.00
2023-01-11T18:47:19.472Z,100.00
2023-01-11T18:49:47.348Z,100.00
2023-01-11T18:52:16.869Z,100.00
2023-01-11T18:54:44.875Z,100.00
2023-01-11T18:57:12.584Z,100.00
2023-01-11T18:59:40.467Z,100.00
2023-01-11T19:02:21.697Z,100.00
2023-01-11T19:04:49.723Z,100.00
2023-01-11T19:07:19.057Z,100.00
2023-01-11T19:09:46.672Z,100.00
2023-01-11T19:12:15.407Z,100.00
2023-01-11T19:14:43.251Z,100.00
2023-01-11T19:17:12.346Z,100.00
2023-01-11T19:19:40.240Z,100.00
2023-01-11T19:22:08.799Z,100.00
2023-01-11T19:24:38.018Z,100.00
2023-01-11T19:27:05.886Z,100.00
2023-01-11T19:29:33.672Z,100.00
2023-01-11T19:32:01.318Z,100.00
2023-01-11T19:34:28.923Z,100.00
2023-01-11T19:36:56.561Z,100.00
2023-01-11T19:39:24.304Z,100.00
2023-01-11T19:41:57.906Z,100.00
2023-01-11T19:44:28.244Z,100.00
2023-01-11T19:47:10.402Z,100.00
2023-01-11T19:52:06.127Z,100.00
2023-01-11T19:59:28.044Z,100.00
2023-01-11T20:04:25.132Z,100.00
2023-01-11T20:09:20.204Z,100.00
2023-01-11T20:14:15.166Z,100.00
2023-01-11T20:19:12.155Z,100.00
2023-01-11T20:26:37.179Z,100.00
2023-01-11T20:31:35.411Z,100.00
2023-01-11T20:34:04.435Z,100.00
2023-01-11T20:36:32.071Z,100.00
2023-01-11T20:38:59.786Z,100.00
2023-01-11T20:41:46.192Z,100.00
2023-01-11T20:44:16.074Z,100.00
2023-01-11T20:46:47.620Z,100.00
2023-01-11T20:49:15.780Z,100.00
2023-01-11T20:51:44.096Z,100.00
2023-01-11T20:54:12.038Z,100.00
2023-01-11T20:56:40.843Z,100.00
2023-01-11T20:59:09.770Z,100.00
2023-01-11T21:01:38.124Z,100.00
2023-01-11T21:04:08.400Z,100.00
2023-01-11T21:06:38.476Z,100.00
2023-01-11T21:09:07.370Z,100.00
2023-01-11T21:11:35.896Z,100.00
2023-01-11T21:14:05.043Z,100.00
2023-01-11T21:16:32.947Z,100.00
2023-01-11T21:19:02.101Z,100.00
2023-01-11T21:21:34.223Z,100.00
2023-01-11T21:24:03.741Z,100.00
2023-01-11T21:26:31.965Z,100.00
2023-01-11T21:29:00.914Z,100.00
2023-01-11T21:31:30.085Z,100.00
2023-01-11T21:33:58.622Z,100.00
2023-01-11T21:36:28.387Z,100.00
2023-01-11T21:38:58.230Z,100.00
2023-01-11T21:41:41.979Z,100.00
2023-01-11T21:44:10.525Z,100.00
2023-01-11T21:46:38.456Z,100.00
2023-01-11T21:49:06.662Z,100.00
2023-01-11T21:51:34.588Z,100.00
2023-01-11T21:54:06.265Z,100.00
2023-01-11T21:56:33.993Z,100.00
2023-01-11T21:59:01.732Z,100.00
2023-01-11T22:01:30.811Z,100.00
2023-01-11T22:03:58.715Z,100.00
2023-01-11T22:06:26.548Z,100.00
2023-01-11T22:08:54.338Z,100.00
2023-01-11T22:11:23.842Z,100.00
2023-01-11T22:13:53.965Z,100.00
2023-01-11T22:16:21.853Z,100.00
2023-01-11T22:18:50.000Z,100.00
2023-01-11T22:21:19.083Z,100.00
2023-01-11T22:23:47.579Z,100.00
2023-01-11T22:26:16.622Z,100.00
2023-01-11T22:29:03.758Z,100.00
2023-01-11T22:31:32.191Z,100.00
2023-01-11T22:34:00.671Z,100.00
2023-01-11T22:36:29.334Z,100.00
2023-01-11T22:38:57.299Z,100.00
2023-01-11T22:41:25.839Z,100.00
2023-01-11T22:43:55.087Z,100.00
2023-01-11T22:46:24.218Z,100.00
2023-01-11T22:48:53.733Z,100.00
2023-01-11T22:51:22.469Z,100.00
2023-01-11T22:53:51.109Z,100.00
2023-01-11T22:56:20.456Z,100.00
2023-01-11T22:58:48.499Z,100.00
2023-01-11T23:01:19.164Z,100.00
2023-01-11T23:03:46.992Z,100.00
2023-01-11T23:06:17.569Z,100.00
2023-01-11T23:08:45.832Z,100.00
2023-01-11T23:11:38.948Z,100.00
2023-01-11T23:14:07.864Z,100.00
2023-01-11T23:16:37.665Z,100.00
2023-01-11T23:19:06.978Z,100.00
2023-01-11T23:21:34.864Z,100.00
2023-01-11T23:24:03.093Z,100.00
2023-01-11T23:26:31.126Z,100.00
2023-01-11T23:28:59.107Z,100.00
2023-01-11T23:31:29.330Z,100.00
2023-01-11T23:34:00.499Z,100.00
2023-01-11T23:36:30.830Z,100.00
2023-01-11T23:38:59.099Z,100.00
2023-01-11T23:46:44.294Z,100.00
2023-01-11T23:49:14.705Z,100.00
2023-01-11T23:51:43.474Z,100.00
2023-01-11T23:54:11.657Z,100.00
2023-01-11T23:56:39.666Z,100.00
2023-01-11T23:59:08.849Z,100.00
